sensor_id;sensor_type;location;lat;lon;timestamp;P1;durP1;ratioP1;P2;durP2;ratioP2
9976;SDS011;5029;47.378;11.776;2022-12-10T00:04:38;12.17;;;10.93;;
9976;SDS011;5029;47.378;11.776;2022-12-10T00:09:49;11.60;;;10.43;;
9976;SDS011;5029;47.378;11.776;2022-12-10T00:14:54;12.40;;;11.20;;
9976;SDS011;5029;47.378;11.776;2022-12-10T00:19:58;12.73;;;11.40;;
9976;SDS011;5029;47.378;11.776;2022-12-10T00:25:01;12.13;;;10.93;;
9976;SDS011;5029;47.378;11.776;2022-12-10T00:30:07;12.10;;;10.80;;
9976;SDS011;5029;47.378;11.776;2022-12-10T00:35:12;12.17;;;10.87;;
9976;SDS011;5029;47.378;11.776;2022-12-10T00:40:16;12.87;;;10.47;;
9976;SDS011;5029;47.378;11.776;2022-12-10T00:45:21;11.73;;;10.53;;
9976;SDS011;5029;47.378;11.776;2022-12-10T00:50:24;12.40;;;10.47;;
9976;SDS011;5029;47.378;11.776;2022-12-10T00:55:28;11.53;;;10.33;;
9976;SDS011;5029;47.378;11.776;2022-12-10T01:00:33;11.47;;;10.30;;
9976;SDS011;5029;47.378;11.776;2022-12-10T01:05:37;12.53;;;11.23;;
9976;SDS011;5029;47.378;11.776;2022-12-10T01:10:41;14.57;;;12.73;;
9976;SDS011;5029;47.378;11.776;2022-12-10T01:15:46;18.53;;;14.50;;
9976;SDS011;5029;47.378;11.776;2022-12-10T01:20:50;16.13;;;14.27;;
9976;SDS011;5029;47.378;11.776;2022-12-10T01:25:54;16.37;;;13.57;;
9976;SDS011;5029;47.378;11.776;2022-12-10T01:31:04;15.97;;;13.23;;
9976;SDS011;5029;47.378;11.776;2022-12-10T01:36:11;14.40;;;12.50;;
9976;SDS011;5029;47.378;11.776;2022-12-10T01:41:16;14.13;;;12.60;;
9976;SDS011;5029;47.378;11.776;2022-12-10T01:46:23;14.10;;;11.50;;
9976;SDS011;5029;47.378;11.776;2022-12-10T01:51:29;14.53;;;12.70;;
9976;SDS011;5029;47.378;11.776;2022-12-10T01:56:35;13.57;;;12.17;;
9976;SDS011;5029;47.378;11.776;2022-12-10T02:01:45;14.97;;;13.37;;
9976;SDS011;5029;47.378;11.776;2022-12-10T02:06:53;15.17;;;13.43;;
9976;SDS011;5029;47.378;11.776;2022-12-10T02:12:05;16.17;;;13.90;;
9976;SDS011;5029;47.378;11.776;2022-12-10T02:17:16;16.07;;;12.70;;
9976;SDS011;5029;47.378;11.776;2022-12-10T02:22:23;14.83;;;13.30;;
9976;SDS011;5029;47.378;11.776;2022-12-10T02:27:32;14.70;;;13.23;;
9976;SDS011;5029;47.378;11.776;2022-12-10T02:32:42;15.87;;;13.83;;
9976;SDS011;5029;47.378;11.776;2022-12-10T02:37:48;15.13;;;13.53;;
9976;SDS011;5029;47.378;11.776;2022-12-10T02:42:54;16.03;;;13.70;;
9976;SDS011;5029;47.378;11.776;2022-12-10T02:48:00;16.03;;;14.00;;
9976;SDS011;5029;47.378;11.776;2022-12-10T02:53:07;16.00;;;14.30;;
9976;SDS011;5029;47.378;11.776;2022-12-10T02:58:12;16.67;;;14.10;;
9976;SDS011;5029;47.378;11.776;2022-12-10T03:03:28;17.47;;;15.30;;
9976;SDS011;5029;47.378;11.776;2022-12-10T03:08:38;16.70;;;14.40;;
9976;SDS011;5029;47.378;11.776;2022-12-10T03:13:48;17.40;;;14.03;;
9976;SDS011;5029;47.378;11.776;2022-12-10T03:19:00;16.33;;;13.73;;
9976;SDS011;5029;47.378;11.776;2022-12-10T03:24:07;14.43;;;12.93;;
9976;SDS011;5029;47.378;11.776;2022-12-10T03:29:12;15.70;;;14.00;;
9976;SDS011;5029;47.378;11.776;2022-12-10T03:34:21;16.33;;;14.13;;
9976;SDS011;5029;47.378;11.776;2022-12-10T03:39:26;15.10;;;13.50;;
9976;SDS011;5029;47.378;11.776;2022-12-10T03:44:31;15.77;;;13.90;;
9976;SDS011;5029;47.378;11.776;2022-12-10T03:49:38;14.33;;;12.83;;
9976;SDS011;5029;47.378;11.776;2022-12-10T03:54:42;15.67;;;13.67;;
9976;SDS011;5029;47.378;11.776;2022-12-10T03:59:46;15.00;;;13.50;;
9976;SDS011;5029;47.378;11.776;2022-12-10T04:04:51;14.90;;;12.83;;
9976;SDS011;5029;47.378;11.776;2022-12-10T04:09:55;14.30;;;12.77;;
9976;SDS011;5029;47.378;11.776;2022-12-10T04:14:58;12.27;;;10.97;;
9976;SDS011;5029;47.378;11.776;2022-12-10T04:20:21;14.43;;;12.93;;
9976;SDS011;5029;47.378;11.776;2022-12-10T04:25:42;14.53;;;12.73;;
9976;SDS011;5029;47.378;11.776;2022-12-10T04:31:03;12.50;;;11.20;;
9976;SDS011;5029;47.378;11.776;2022-12-10T04:36:08;14.47;;;11.53;;
9976;SDS011;5029;47.378;11.776;2022-12-10T04:41:12;13.33;;;12.03;;
9976;SDS011;5029;47.378;11.776;2022-12-10T04:46:17;13.63;;;12.23;;
9976;SDS011;5029;47.378;11.776;2022-12-10T04:51:22;12.53;;;11.23;;
9976;SDS011;5029;47.378;11.776;2022-12-10T04:56:26;12.07;;;10.57;;
9976;SDS011;5029;47.378;11.776;2022-12-10T05:01:30;14.33;;;11.57;;
9976;SDS011;5029;47.378;11.776;2022-12-10T05:06:35;13.37;;;11.70;;
9976;SDS011;5029;47.378;11.776;2022-12-10T05:11:40;13.70;;;11.93;;
9976;SDS011;5029;47.378;11.776;2022-12-10T05:16:45;13.33;;;12.03;;
9976;SDS011;5029;47.378;11.776;2022-12-10T05:21:54;14.80;;;13.30;;
9976;SDS011;5029;47.378;11.776;2022-12-10T05:27:15;13.90;;;12.40;;
9976;SDS011;5029;47.378;11.776;2022-12-10T05:32:19;14.77;;;13.20;;
9976;SDS011;5029;47.378;11.776;2022-12-10T05:37:24;15.13;;;12.80;;
9976;SDS011;5029;47.378;11.776;2022-12-10T05:42:28;14.13;;;12.57;;
9976;SDS011;5029;47.378;11.776;2022-12-10T05:47:32;13.07;;;11.67;;
9976;SDS011;5029;47.378;11.776;2022-12-10T05:52:37;15.67;;;12.83;;
9976;SDS011;5029;47.378;11.776;2022-12-10T05:57:41;14.93;;;13.37;;
9976;SDS011;5029;47.378;11.776;2022-12-10T06:02:45;14.23;;;12.80;;
9976;SDS011;5029;47.378;11.776;2022-12-10T06:07:51;15.70;;;13.27;;
9976;SDS011;5029;47.378;11.776;2022-12-10T06:12:54;14.63;;;12.83;;
9976;SDS011;5029;47.378;11.776;2022-12-10T06:17:58;15.23;;;13.63;;
9976;SDS011;5029;47.378;11.776;2022-12-10T06:23:04;14.87;;;13.37;;
9976;SDS011;5029;47.378;11.776;2022-12-10T06:28:08;15.23;;;13.63;;
9976;SDS011;5029;47.378;11.776;2022-12-10T06:33:13;14.50;;;12.97;;
9976;SDS011;5029;47.378;11.776;2022-12-10T06:38:18;15.30;;;13.80;;
9976;SDS011;5029;47.378;11.776;2022-12-10T06:43:22;15.60;;;12.73;;
9976;SDS011;5029;47.378;11.776;2022-12-10T06:48:26;14.40;;;12.97;;
9976;SDS011;5029;47.378;11.776;2022-12-10T06:53:31;15.07;;;13.47;;
9976;SDS011;5029;47.378;11.776;2022-12-10T06:58:36;15.37;;;13.77;;
9976;SDS011;5029;47.378;11.776;2022-12-10T07:03:43;15.23;;;13.63;;
9976;SDS011;5029;47.378;11.776;2022-12-10T07:08:51;15.03;;;13.20;;
9976;SDS011;5029;47.378;11.776;2022-12-10T07:13:56;15.10;;;13.23;;
9976;SDS011;5029;47.378;11.776;2022-12-10T07:19:01;16.90;;;12.70;;
9976;SDS011;5029;47.378;11.776;2022-12-10T07:24:09;16.80;;;14.77;;
9976;SDS011;5029;47.378;11.776;2022-12-10T07:29:15;16.50;;;14.80;;
9976;SDS011;5029;47.378;11.776;2022-12-10T07:34:20;16.80;;;14.47;;
9976;SDS011;5029;47.378;11.776;2022-12-10T07:39:26;17.03;;;14.00;;
9976;SDS011;5029;47.378;11.776;2022-12-10T07:44:30;17.10;;;13.90;;
9976;SDS011;5029;47.378;11.776;2022-12-10T07:49:34;14.77;;;13.20;;
9976;SDS011;5029;47.378;11.776;2022-12-10T07:54:42;16.93;;;15.13;;
9976;SDS011;5029;47.378;11.776;2022-12-10T07:59:46;15.90;;;14.30;;
9976;SDS011;5029;47.378;11.776;2022-12-10T08:04:50;16.30;;;14.60;;
9976;SDS011;5029;47.378;11.776;2022-12-10T08:09:56;15.20;;;13.57;;
9976;SDS011;5029;47.378;11.776;2022-12-10T08:15:00;17.17;;;14.83;;
9976;SDS011;5029;47.378;11.776;2022-12-10T08:20:05;16.57;;;14.53;;
9976;SDS011;5029;47.378;11.776;2022-12-10T08:25:13;16.37;;;14.63;;
9976;SDS011;5029;47.378;11.776;2022-12-10T08:30:17;17.17;;;15.37;;
9976;SDS011;5029;47.378;11.776;2022-12-10T08:35:21;18.97;;;15.60;;
9976;SDS011;5029;47.378;11.776;2022-12-10T08:40:26;18.63;;;15.80;;
9976;SDS011;5029;47.378;11.776;2022-12-10T08:45:30;19.47;;;15.47;;
9976;SDS011;5029;47.378;11.776;2022-12-10T08:50:35;18.10;;;16.00;;
9976;SDS011;5029;47.378;11.776;2022-12-10T08:55:40;19.10;;;16.07;;
9976;SDS011;5029;47.378;11.776;2022-12-10T09:00:49;18.77;;;16.83;;
9976;SDS011;5029;47.378;11.776;2022-12-10T09:05:55;16.80;;;15.00;;
9976;SDS011;5029;47.378;11.776;2022-12-10T09:11:05;17.80;;;15.90;;
9976;SDS011;5029;47.378;11.776;2022-12-10T09:16:09;17.17;;;15.47;;
9976;SDS011;5029;47.378;11.776;2022-12-10T09:21:14;16.60;;;14.83;;
9976;SDS011;5029;47.378;11.776;2022-12-10T09:26:21;16.93;;;15.10;;
9976;SDS011;5029;47.378;11.776;2022-12-10T09:31:26;18.73;;;16.33;;
9976;SDS011;5029;47.378;11.776;2022-12-10T09:36:30;18.40;;;16.47;;
9976;SDS011;5029;47.378;11.776;2022-12-10T09:47:00;17.80;;;15.90;;
9976;SDS011;5029;47.378;11.776;2022-12-10T09:52:09;17.70;;;15.77;;
9976;SDS011;5029;47.378;11.776;2022-12-10T09:57:19;17.73;;;15.87;;
9976;SDS011;5029;47.378;11.776;2022-12-10T10:02:25;22.87;;;20.17;;
9976;SDS011;5029;47.378;11.776;2022-12-10T10:07:31;16.40;;;14.17;;
9976;SDS011;5029;47.378;11.776;2022-12-10T10:12:39;16.53;;;14.67;;
9976;SDS011;5029;47.378;11.776;2022-12-10T10:17:46;17.27;;;15.47;;
9976;SDS011;5029;47.378;11.776;2022-12-10T10:22:51;17.13;;;15.43;;
9976;SDS011;5029;47.378;11.776;2022-12-10T10:28:00;16.70;;;15.07;;
9976;SDS011;5029;47.378;11.776;2022-12-10T10:33:07;17.13;;;15.33;;
9976;SDS011;5029;47.378;11.776;2022-12-10T10:38:15;17.67;;;15.97;;
9976;SDS011;5029;47.378;11.776;2022-12-10T10:43:24;18.23;;;16.37;;
9976;SDS011;5029;47.378;11.776;2022-12-10T10:48:30;17.17;;;15.43;;
9976;SDS011;5029;47.378;11.776;2022-12-10T10:53:42;18.70;;;16.80;;
9976;SDS011;5029;47.378;11.776;2022-12-10T10:58:49;16.90;;;15.27;;
9976;SDS011;5029;47.378;11.776;2022-12-10T11:03:59;18.20;;;16.30;;
9976;SDS011;5029;47.378;11.776;2022-12-10T11:09:03;17.73;;;15.70;;
9976;SDS011;5029;47.378;11.776;2022-12-10T11:14:22;18.63;;;16.23;;
9976;SDS011;5029;47.378;11.776;2022-12-10T11:19:27;17.50;;;15.47;;
9976;SDS011;5029;47.378;11.776;2022-12-10T11:24:31;15.90;;;14.27;;
9976;SDS011;5029;47.378;11.776;2022-12-10T11:29:40;14.97;;;13.03;;
9976;SDS011;5029;47.378;11.776;2022-12-10T11:34:55;14.57;;;12.67;;
9976;SDS011;5029;47.378;11.776;2022-12-10T11:40:19;15.17;;;13.57;;
9976;SDS011;5029;47.378;11.776;2022-12-10T11:45:40;14.07;;;12.67;;
9976;SDS011;5029;47.378;11.776;2022-12-10T11:50:50;14.63;;;13.13;;
9976;SDS011;5029;47.378;11.776;2022-12-10T11:56:03;12.07;;;10.90;;
9976;SDS011;5029;47.378;11.776;2022-12-10T12:01:20;10.50;;;9.43;;
9976;SDS011;5029;47.378;11.776;2022-12-10T12:06:45;11.57;;;10.37;;
9976;SDS011;5029;47.378;11.776;2022-12-10T12:12:07;12.17;;;11.00;;
9976;SDS011;5029;47.378;11.776;2022-12-10T12:17:23;10.10;;;8.90;;
9976;SDS011;5029;47.378;11.776;2022-12-10T12:22:31;9.70;;;8.80;;
9976;SDS011;5029;47.378;11.776;2022-12-10T12:27:39;10.93;;;9.87;;
9976;SDS011;5029;47.378;11.776;2022-12-10T12:32:51;9.23;;;8.30;;
9976;SDS011;5029;47.378;11.776;2022-12-10T12:38:00;8.57;;;7.77;;
9976;SDS011;5029;47.378;11.776;2022-12-10T12:43:10;7.80;;;6.53;;
9976;SDS011;5029;47.378;11.776;2022-12-10T12:48:22;8.67;;;7.87;;
9976;SDS011;5029;47.378;11.776;2022-12-10T12:53:32;6.50;;;5.90;;
9976;SDS011;5029;47.378;11.776;2022-12-10T12:58:39;7.70;;;6.90;;
9976;SDS011;5029;47.378;11.776;2022-12-10T13:03:50;6.87;;;6.17;;
9976;SDS011;5029;47.378;11.776;2022-12-10T13:08:57;8.43;;;7.63;;
9976;SDS011;5029;47.378;11.776;2022-12-10T13:14:29;6.40;;;5.73;;
9976;SDS011;5029;47.378;11.776;2022-12-10T13:19:37;7.60;;;6.80;;
9976;SDS011;5029;47.378;11.776;2022-12-10T13:24:45;6.67;;;6.00;;
9976;SDS011;5029;47.378;11.776;2022-12-10T13:30:17;6.43;;;5.83;;
9976;SDS011;5029;47.378;11.776;2022-12-10T13:41:10;7.37;;;6.17;;
9976;SDS011;5029;47.378;11.776;2022-12-10T13:46:31;6.23;;;5.63;;
9976;SDS011;5029;47.378;11.776;2022-12-10T13:51:45;4.10;;;3.70;;
9976;SDS011;5029;47.378;11.776;2022-12-10T13:56:59;7.30;;;6.60;;
9976;SDS011;5029;47.378;11.776;2022-12-10T14:02:25;5.10;;;4.60;;
9976;SDS011;5029;47.378;11.776;2022-12-10T14:07:51;4.03;;;3.63;;
9976;SDS011;5029;47.378;11.776;2022-12-10T14:12:58;5.07;;;4.67;;
9976;SDS011;5029;47.378;11.776;2022-12-10T14:18:08;4.03;;;3.63;;
9976;SDS011;5029;47.378;11.776;2022-12-10T14:23:23;5.40;;;4.83;;
9976;SDS011;5029;47.378;11.776;2022-12-10T14:28:48;4.83;;;4.10;;
9976;SDS011;5029;47.378;11.776;2022-12-10T14:33:54;4.87;;;4.37;;
9976;SDS011;5029;47.378;11.776;2022-12-10T14:39:04;5.60;;;5.10;;
9976;SDS011;5029;47.378;11.776;2022-12-10T14:44:17;4.27;;;3.87;;
9976;SDS011;5029;47.378;11.776;2022-12-10T14:49:23;5.90;;;5.30;;
9976;SDS011;5029;47.378;11.776;2022-12-10T14:54:30;5.20;;;4.70;;
9976;SDS011;5029;47.378;11.776;2022-12-10T14:59:36;5.50;;;5.00;;
9976;SDS011;5029;47.378;11.776;2022-12-10T15:04:49;5.80;;;4.97;;
9976;SDS011;5029;47.378;11.776;2022-12-10T15:09:55;5.20;;;4.40;;
9976;SDS011;5029;47.378;11.776;2022-12-10T15:15:03;6.63;;;5.97;;
9976;SDS011;5029;47.378;11.776;2022-12-10T15:20:22;6.80;;;5.93;;
9976;SDS011;5029;47.378;11.776;2022-12-10T15:25:31;6.90;;;6.20;;
9976;SDS011;5029;47.378;11.776;2022-12-10T15:30:48;7.27;;;6.57;;
9976;SDS011;5029;47.378;11.776;2022-12-10T15:35:54;6.90;;;6.30;;
9976;SDS011;5029;47.378;11.776;2022-12-10T15:41:20;5.67;;;5.10;;
9976;SDS011;5029;47.378;11.776;2022-12-10T15:46:26;9.47;;;8.30;;
9976;SDS011;5029;47.378;11.776;2022-12-10T15:51:31;7.47;;;6.77;;
9976;SDS011;5029;47.378;11.776;2022-12-10T15:56:36;8.57;;;7.77;;
9976;SDS011;5029;47.378;11.776;2022-12-10T16:01:41;7.13;;;6.43;;
9976;SDS011;5029;47.378;11.776;2022-12-10T16:06:46;7.50;;;6.80;;
9976;SDS011;5029;47.378;11.776;2022-12-10T16:11:53;6.17;;;5.40;;
9976;SDS011;5029;47.378;11.776;2022-12-10T16:17:00;6.70;;;6.00;;
9976;SDS011;5029;47.378;11.776;2022-12-10T16:22:11;7.57;;;6.77;;
9976;SDS011;5029;47.378;11.776;2022-12-10T16:27:19;12.33;;;11.03;;
9976;SDS011;5029;47.378;11.776;2022-12-10T16:32:24;9.13;;;8.23;;
9976;SDS011;5029;47.378;11.776;2022-12-10T16:37:32;12.20;;;11.00;;
9976;SDS011;5029;47.378;11.776;2022-12-10T16:42:40;9.47;;;7.10;;
9976;SDS011;5029;47.378;11.776;2022-12-10T16:47:49;9.63;;;8.63;;
9976;SDS011;5029;47.378;11.776;2022-12-10T16:52:55;10.93;;;9.40;;
9976;SDS011;5029;47.378;11.776;2022-12-10T16:58:04;10.20;;;9.00;;
9976;SDS011;5029;47.378;11.776;2022-12-10T17:03:13;10.53;;;9.37;;
9976;SDS011;5029;47.378;11.776;2022-12-10T17:08:25;7.67;;;6.97;;
9976;SDS011;5029;47.378;11.776;2022-12-10T17:13:32;10.40;;;9.30;;
9976;SDS011;5029;47.378;11.776;2022-12-10T17:18:39;10.77;;;9.50;;
9976;SDS011;5029;47.378;11.776;2022-12-10T17:23:43;10.63;;;9.53;;
9976;SDS011;5029;47.378;11.776;2022-12-10T17:28:49;10.33;;;8.73;;
9976;SDS011;5029;47.378;11.776;2022-12-10T17:33:53;9.87;;;8.87;;
9976;SDS011;5029;47.378;11.776;2022-12-10T17:38:59;9.40;;;7.67;;
9976;SDS011;5029;47.378;11.776;2022-12-10T17:44:08;12.20;;;10.73;;
9976;SDS011;5029;47.378;11.776;2022-12-10T17:49:15;9.83;;;8.83;;
9976;SDS011;5029;47.378;11.776;2022-12-10T17:54:19;11.03;;;9.87;;
9976;SDS011;5029;47.378;11.776;2022-12-10T17:59:27;14.37;;;9.47;;
9976;SDS011;5029;47.378;11.776;2022-12-10T18:04:33;10.20;;;8.90;;
9976;SDS011;5029;47.378;11.776;2022-12-10T18:09:38;11.40;;;9.17;;
9976;SDS011;5029;47.378;11.776;2022-12-10T18:14:43;10.83;;;9.37;;
9976;SDS011;5029;47.378;11.776;2022-12-10T18:19:47;9.93;;;8.87;;
9976;SDS011;5029;47.378;11.776;2022-12-10T18:24:54;10.23;;;9.13;;
9976;SDS011;5029;47.378;11.776;2022-12-10T18:30:00;10.63;;;9.33;;
9976;SDS011;5029;47.378;11.776;2022-12-10T18:35:05;10.73;;;9.63;;
9976;SDS011;5029;47.378;11.776;2022-12-10T18:40:14;10.27;;;8.30;;
9976;SDS011;5029;47.378;11.776;2022-12-10T18:45:24;10.37;;;8.40;;
9976;SDS011;5029;47.378;11.776;2022-12-10T18:50:29;9.73;;;8.73;;
9976;SDS011;5029;47.378;11.776;2022-12-10T18:55:35;9.73;;;8.77;;
9976;SDS011;5029;47.378;11.776;2022-12-10T19:00:43;10.10;;;8.63;;
9976;SDS011;5029;47.378;11.776;2022-12-10T19:05:48;9.47;;;8.43;;
9976;SDS011;5029;47.378;11.776;2022-12-10T19:10:55;11.37;;;10.27;;
9976;SDS011;5029;47.378;11.776;2022-12-10T19:16:03;10.23;;;9.17;;
9976;SDS011;5029;47.378;11.776;2022-12-10T19:21:09;9.70;;;8.03;;
9976;SDS011;5029;47.378;11.776;2022-12-10T19:26:24;9.40;;;8.40;;
9976;SDS011;5029;47.378;11.776;2022-12-10T19:31:32;9.90;;;8.57;;
9976;SDS011;5029;47.378;11.776;2022-12-10T19:36:38;7.67;;;6.83;;
9976;SDS011;5029;47.378;11.776;2022-12-10T19:41:45;9.00;;;8.10;;
9976;SDS011;5029;47.378;11.776;2022-12-10T19:46:51;9.40;;;7.33;;
9976;SDS011;5029;47.378;11.776;2022-12-10T19:51:56;7.03;;;6.33;;
9976;SDS011;5029;47.378;11.776;2022-12-10T19:57:02;5.80;;;5.27;;
9976;SDS011;5029;47.378;11.776;2022-12-10T20:02:10;12.53;;;10.67;;
9976;SDS011;5029;47.378;11.776;2022-12-10T20:07:16;5.67;;;5.10;;
9976;SDS011;5029;47.378;11.776;2022-12-10T20:12:24;5.03;;;4.53;;
9976;SDS011;5029;47.378;11.776;2022-12-10T20:17:31;4.10;;;3.27;;
9976;SDS011;5029;47.378;11.776;2022-12-10T20:22:36;3.97;;;3.33;;
9976;SDS011;5029;47.378;11.776;2022-12-10T20:27:41;3.97;;;3.57;;
9976;SDS011;5029;47.378;11.776;2022-12-10T20:32:51;4.73;;;4.33;;
9976;SDS011;5029;47.378;11.776;2022-12-10T20:37:56;4.33;;;3.93;;
9976;SDS011;5029;47.378;11.776;2022-12-10T20:43:07;4.83;;;4.33;;
9976;SDS011;5029;47.378;11.776;2022-12-10T20:48:13;5.60;;;4.93;;
9976;SDS011;5029;47.378;11.776;2022-12-10T20:53:19;6.00;;;5.40;;
9976;SDS011;5029;47.378;11.776;2022-12-10T20:58:24;5.50;;;4.80;;
9976;SDS011;5029;47.378;11.776;2022-12-10T21:03:33;5.57;;;4.80;;
9976;SDS011;5029;47.378;11.776;2022-12-10T21:08:39;5.30;;;4.80;;
9976;SDS011;5029;47.378;11.776;2022-12-10T21:13:44;5.60;;;5.10;;
9976;SDS011;5029;47.378;11.776;2022-12-10T21:18:52;7.50;;;6.80;;
9976;SDS011;5029;47.378;11.776;2022-12-10T21:23:57;7.27;;;6.57;;
9976;SDS011;5029;47.378;11.776;2022-12-10T21:29:06;8.13;;;7.43;;
9976;SDS011;5029;47.378;11.776;2022-12-10T21:34:14;9.97;;;8.97;;
9976;SDS011;5029;47.378;11.776;2022-12-10T21:39:19;8.57;;;7.20;;
9976;SDS011;5029;47.378;11.776;2022-12-10T21:44:26;9.43;;;8.23;;
9976;SDS011;5029;47.378;11.776;2022-12-10T21:49:31;9.80;;;8.83;;
9976;SDS011;5029;47.378;11.776;2022-12-10T21:54:38;8.87;;;7.97;;
9976;SDS011;5029;47.378;11.776;2022-12-10T21:59:43;8.87;;;7.93;;
9976;SDS011;5029;47.378;11.776;2022-12-10T22:04:48;8.87;;;7.97;;
9976;SDS011;5029;47.378;11.776;2022-12-10T22:09:52;11.07;;;9.93;;
9976;SDS011;5029;47.378;11.776;2022-12-10T22:14:56;11.10;;;9.93;;
9976;SDS011;5029;47.378;11.776;2022-12-10T22:20:05;10.77;;;9.67;;
9976;SDS011;5029;47.378;11.776;2022-12-10T22:25:10;10.43;;;9.40;;
9976;SDS011;5029;47.378;11.776;2022-12-10T22:30:13;10.50;;;9.47;;
9976;SDS011;5029;47.378;11.776;2022-12-10T22:35:19;8.70;;;7.77;;
9976;SDS011;5029;47.378;11.776;2022-12-10T22:40:23;8.37;;;6.60;;
9976;SDS011;5029;47.378;11.776;2022-12-10T22:45:27;10.50;;;8.30;;
9976;SDS011;5029;47.378;11.776;2022-12-10T22:50:32;11.20;;;9.90;;
9976;SDS011;5029;47.378;11.776;2022-12-10T22:55:36;11.93;;;9.90;;
9976;SDS011;5029;47.378;11.776;2022-12-10T23:00:40;11.60;;;9.90;;
9976;SDS011;5029;47.378;11.776;2022-12-10T23:05:46;11.43;;;9.50;;
9976;SDS011;5029;47.378;11.776;2022-12-10T23:10:50;12.07;;;9.67;;
9976;SDS011;5029;47.378;11.776;2022-12-10T23:15:54;10.37;;;9.00;;
9976;SDS011;5029;47.378;11.776;2022-12-10T23:20:59;11.17;;;9.70;;
9976;SDS011;5029;47.378;11.776;2022-12-10T23:26:03;12.10;;;9.53;;
9976;SDS011;5029;47.378;11.776;2022-12-10T23:31:07;10.93;;;9.40;;
9976;SDS011;5029;47.378;11.776;2022-12-10T23:36:22;11.20;;;8.97;;
9976;SDS011;5029;47.378;11.776;2022-12-10T23:41:26;11.27;;;8.63;;
9976;SDS011;5029;47.378;11.776;2022-12-10T23:46:30;7.47;;;6.07;;
9976;SDS011;5029;47.378;11.776;2022-12-10T23:51:35;9.20;;;7.53;;
9976;SDS011;5029;47.378;11.776;2022-12-10T23:56:38;8.73;;;7.83;;
